Gas Czar — V7JP2 — position and weather

sailwx.info

Track history (hours):
 
Tides and Currents Weather Stations Pressure Air Temp Water Temp Dewpoint Dewpoint Depression Visibility Wind Speed Wind Dir Waves Ship Positions

Gas Czar

Last reported at 2018-May-11 13:23 UTC. Time now 2018-May-22 10:17 UTC.
Position N 02°00' E 104°44'.
Warning: this ship's position is 10 days out of date.

Length 95 m; draft 4.1 m.

Type: Tanker. MMSI: 538002552.

Date/timePositionNaut miles runAvg speedWind from/ knotsBaromVisibWave heightAir tempDewpointWater temp
2018-May-11 13:23N 02°00' E 104°44'612.8
2018-May-11 12:54N 01°55' E 104°41'1412.6
2018-May-11 11:47N 01°43' E 104°33'612.3
2018-May-11 11:18N 01°38' E 104°30'3 8.0
2018-May-11 10:59N 01°36' E 104°28'0 0.1
2018-May-11 06:43N 01°37' E 104°28'1 2.8
2018-May-11 06:20N 01°36' E 104°28'1010.0
2018-May-11 05:17N 01°25' E 104°28'413.5
2018-May-11 04:58N 01°22' E 104°25'613.8
2018-May-11 04:30N 01°18' E 104°20'713.9
2018-May-11 03:59N 01°16' E 104°13'510.9
2018-May-11 03:30N 01°15' E 104°08'3 5.3
2018-May-11 03:00N 01°15' E 104°05'2 3.8
2018-May-11 02:31N 01°14' E 104°04'2 4.5
2018-May-11 01:59N 01°14' E 104°01'2 4.1
2018-May-11 01:26N 01°14' E 103°59'3 6.3
2018-May-11 01:00N 01°13' E 103°56'612.4
2018-May-11 00:31N 01°11' E 103°51'612.1
2018-May-11 00:00N 01°07' E 103°46'612.3
2018-May-10 23:30N 01°04' E 103°40'5 9.7
2018-May-10 23:01N 01°04' E 103°36'611.3
2018-May-10 22:30N 01°07' E 103°31'510.4
2018-May-10 21:59N 01°10' E 103°26'510.7
2018-May-10 21:30N 01°13' E 103°22'610.5
2018-May-10 20:58N 01°17' E 103°18'511.0
2018-May-10 20:30N 01°20' E 103°14'611.4
2018-May-10 19:59N 01°24' E 103°10'  
Track history (hours):
 
Tides and Currents Weather Stations Pressure Air Temp Water Temp Dewpoint Dewpoint Depression Visibility Wind Speed Wind Dir Waves Ship Positions

Gas Czar

Last reported at 2018-May-11 13:23 UTC. Time now 2018-May-22 10:17 UTC.
Position N 02°00' E 104°44'.
Warning: this ship's position is 10 days out of date.

Length 95 m; draft 4.1 m.

Type: Tanker. MMSI: 538002552.

Date/timePositionNaut miles runAvg speedWind from/ knotsBaromVisibWave heightAir tempDewpointWater temp
2018-May-11 13:23N 02°00' E 104°44'612.8
2018-May-11 12:54N 01°55' E 104°41'1412.6
2018-May-11 11:47N 01°43' E 104°33'612.3
2018-May-11 11:18N 01°38' E 104°30'3 8.0
2018-May-11 10:59N 01°36' E 104°28'0 0.1
2018-May-11 06:43N 01°37' E 104°28'1 2.8
2018-May-11 06:20N 01°36' E 104°28'1010.0
2018-May-11 05:17N 01°25' E 104°28'413.5
2018-May-11 04:58N 01°22' E 104°25'613.8
2018-May-11 04:30N 01°18' E 104°20'713.9
2018-May-11 03:59N 01°16' E 104°13'510.9
2018-May-11 03:30N 01°15' E 104°08'3 5.3
2018-May-11 03:00N 01°15' E 104°05'2 3.8
2018-May-11 02:31N 01°14' E 104°04'2 4.5
2018-May-11 01:59N 01°14' E 104°01'2 4.1
2018-May-11 01:26N 01°14' E 103°59'3 6.3
2018-May-11 01:00N 01°13' E 103°56'612.4
2018-May-11 00:31N 01°11' E 103°51'612.1
2018-May-11 00:00N 01°07' E 103°46'612.3
2018-May-10 23:30N 01°04' E 103°40'5 9.7
2018-May-10 23:01N 01°04' E 103°36'611.3
2018-May-10 22:30N 01°07' E 103°31'510.4
2018-May-10 21:59N 01°10' E 103°26'510.7
2018-May-10 21:30N 01°13' E 103°22'610.5
2018-May-10 20:58N 01°17' E 103°18'511.0
2018-May-10 20:30N 01°20' E 103°14'611.4
2018-May-10 19:59N 01°24' E 103°10'  

Dump ship's entire track history